sensor_id;sensor_type;location;lat;lon;timestamp;temperature;humidity
18581;DHT22;9420;50.876;7.012;2024-02-21T00:02:20;9.30;80.35
18581;DHT22;9420;50.876;7.012;2024-02-21T00:04:46;9.23;80.56
18581;DHT22;9420;50.876;7.012;2024-02-21T00:07:13;9.24;80.81
18581;DHT22;9420;50.876;7.012;2024-02-21T00:09:41;9.10;81.19
18581;DHT22;9420;50.876;7.012;2024-02-21T00:12:08;9.22;80.96
18581;DHT22;9420;50.876;7.012;2024-02-21T00:14:35;9.19;81.02
18581;DHT22;9420;50.876;7.012;2024-02-21T00:17:01;9.27;80.50
18581;DHT22;9420;50.876;7.012;2024-02-21T00:19:28;9.30;80.41
18581;DHT22;9420;50.876;7.012;2024-02-21T00:21:55;9.34;80.63
18581;DHT22;9420;50.876;7.012;2024-02-21T00:24:22;9.23;80.92
18581;DHT22;9420;50.876;7.012;2024-02-21T00:26:50;9.29;80.96
18581;DHT22;9420;50.876;7.012;2024-02-21T00:29:17;9.36;80.45
18581;DHT22;9420;50.876;7.012;2024-02-21T00:31:44;9.37;80.34
18581;DHT22;9420;50.876;7.012;2024-02-21T00:34:10;9.22;81.22
18581;DHT22;9420;50.876;7.012;2024-02-21T00:36:38;9.19;81.55
18581;DHT22;9420;50.876;7.012;2024-02-21T00:39:05;9.15;81.64
18581;DHT22;9420;50.876;7.012;2024-02-21T00:41:32;9.13;81.44
18581;DHT22;9420;50.876;7.012;2024-02-21T00:44:00;9.23;81.14
18581;DHT22;9420;50.876;7.012;2024-02-21T00:46:26;9.27;80.79
18581;DHT22;9420;50.876;7.012;2024-02-21T00:48:53;9.30;81.08
18581;DHT22;9420;50.876;7.012;2024-02-21T00:51:19;9.23;80.82
18581;DHT22;9420;50.876;7.012;2024-02-21T00:53:46;9.22;81.23
18581;DHT22;9420;50.876;7.012;2024-02-21T00:56:12;9.18;81.28
18581;DHT22;9420;50.876;7.012;2024-02-21T00:58:39;9.10;82.70
18581;DHT22;9420;50.876;7.012;2024-02-21T01:01:09;9.00;82.73
18581;DHT22;9420;50.876;7.012;2024-02-21T01:03:36;8.95;83.64
18581;DHT22;9420;50.876;7.012;2024-02-21T01:06:05;8.93;83.81
18581;DHT22;9420;50.876;7.012;2024-02-21T01:08:32;8.83;84.30
18581;DHT22;9420;50.876;7.012;2024-02-21T01:10:58;8.82;84.38
18581;DHT22;9420;50.876;7.012;2024-02-21T01:13:25;8.78;84.53
18581;DHT22;9420;50.876;7.012;2024-02-21T01:15:51;8.85;82.96
18581;DHT22;9420;50.876;7.012;2024-02-21T01:18:20;8.76;84.52
18581;DHT22;9420;50.876;7.012;2024-02-21T01:20:47;8.73;84.32
18581;DHT22;9420;50.876;7.012;2024-02-21T01:23:13;8.72;84.79
18581;DHT22;9420;50.876;7.012;2024-02-21T01:25:40;8.75;83.92
18581;DHT22;9420;50.876;7.012;2024-02-21T01:28:07;8.78;84.58
18581;DHT22;9420;50.876;7.012;2024-02-21T01:30:34;8.67;85.09
18581;DHT22;9420;50.876;7.012;2024-02-21T01:33:01;8.85;83.40
18581;DHT22;9420;50.876;7.012;2024-02-21T01:35:29;8.93;83.17
18581;DHT22;9420;50.876;7.012;2024-02-21T01:37:56;8.82;84.58
18581;DHT22;9420;50.876;7.012;2024-02-21T01:40:22;8.89;83.24
18581;DHT22;9420;50.876;7.012;2024-02-21T01:42:49;8.98;82.98
18581;DHT22;9420;50.876;7.012;2024-02-21T01:45:16;8.98;83.00
18581;DHT22;9420;50.876;7.012;2024-02-21T01:47:42;8.98;83.19
18581;DHT22;9420;50.876;7.012;2024-02-21T01:50:10;9.03;83.00
18581;DHT22;9420;50.876;7.012;2024-02-21T01:52:38;9.09;82.81
18581;DHT22;9420;50.876;7.012;2024-02-21T01:55:06;8.93;83.23
18581;DHT22;9420;50.876;7.012;2024-02-21T01:57:32;8.95;83.25
18581;DHT22;9420;50.876;7.012;2024-02-21T01:59:59;9.05;82.92
18581;DHT22;9420;50.876;7.012;2024-02-21T02:02:27;9.02;82.86
18581;DHT22;9420;50.876;7.012;2024-02-21T02:04:54;8.95;82.77
18581;DHT22;9420;50.876;7.012;2024-02-21T02:07:21;9.08;82.38
18581;DHT22;9420;50.876;7.012;2024-02-21T02:09:48;9.12;82.29
18581;DHT22;9420;50.876;7.012;2024-02-21T02:12:16;9.20;82.14
18581;DHT22;9420;50.876;7.012;2024-02-21T02:14:43;9.22;82.46
18581;DHT22;9420;50.876;7.012;2024-02-21T02:17:09;9.24;82.35
18581;DHT22;9420;50.876;7.012;2024-02-21T02:19:36;9.18;82.74
18581;DHT22;9420;50.876;7.012;2024-02-21T02:22:09;9.29;82.42
18581;DHT22;9420;50.876;7.012;2024-02-21T02:24:37;9.15;82.75
18581;DHT22;9420;50.876;7.012;2024-02-21T02:27:04;9.13;82.78
18581;DHT22;9420;50.876;7.012;2024-02-21T02:29:31;9.08;82.96
18581;DHT22;9420;50.876;7.012;2024-02-21T02:31:58;9.08;82.96
18581;DHT22;9420;50.876;7.012;2024-02-21T02:34:25;9.08;83.07
18581;DHT22;9420;50.876;7.012;2024-02-21T02:36:51;8.92;83.65
18581;DHT22;9420;50.876;7.012;2024-02-21T02:39:19;8.98;83.46
18581;DHT22;9420;50.876;7.012;2024-02-21T02:41:47;8.93;83.38
18581;DHT22;9420;50.876;7.012;2024-02-21T02:44:14;8.83;83.79
18581;DHT22;9420;50.876;7.012;2024-02-21T02:46:41;8.93;83.80
18581;DHT22;9420;50.876;7.012;2024-02-21T02:49:08;8.91;83.74
18581;DHT22;9420;50.876;7.012;2024-02-21T02:51:34;9.02;83.30
18581;DHT22;9420;50.876;7.012;2024-02-21T02:54:02;9.05;83.16
18581;DHT22;9420;50.876;7.012;2024-02-21T02:56:28;9.09;82.94
18581;DHT22;9420;50.876;7.012;2024-02-21T02:58:56;9.06;82.86
18581;DHT22;9420;50.876;7.012;2024-02-21T03:01:23;9.10;82.91
18581;DHT22;9420;50.876;7.012;2024-02-21T03:03:49;9.08;82.66
18581;DHT22;9420;50.876;7.012;2024-02-21T03:06:16;9.10;82.61
18581;DHT22;9420;50.876;7.012;2024-02-21T03:08:43;9.05;82.73
18581;DHT22;9420;50.876;7.012;2024-02-21T03:11:09;8.98;83.00
18581;DHT22;9420;50.876;7.012;2024-02-21T03:13:36;8.93;82.92
18581;DHT22;9420;50.876;7.012;2024-02-21T03:16:05;8.93;83.18
18581;DHT22;9420;50.876;7.012;2024-02-21T03:18:31;8.95;83.15
18581;DHT22;9420;50.876;7.012;2024-02-21T03:20:58;8.86;83.41
18581;DHT22;9420;50.876;7.012;2024-02-21T03:23:24;8.91;83.30
18581;DHT22;9420;50.876;7.012;2024-02-21T03:25:51;8.92;83.11
18581;DHT22;9420;50.876;7.012;2024-02-21T03:28:18;8.78;83.52
18581;DHT22;9420;50.876;7.012;2024-02-21T03:30:44;8.82;83.37
18581;DHT22;9420;50.876;7.012;2024-02-21T03:33:13;8.73;83.61
18581;DHT22;9420;50.876;7.012;2024-02-21T03:35:39;8.79;83.73
18581;DHT22;9420;50.876;7.012;2024-02-21T03:38:06;8.78;83.56
18581;DHT22;9420;50.876;7.012;2024-02-21T03:40:32;8.75;83.78
18581;DHT22;9420;50.876;7.012;2024-02-21T03:42:59;8.75;83.55
18581;DHT22;9420;50.876;7.012;2024-02-21T03:45:25;8.83;83.16
18581;DHT22;9420;50.876;7.012;2024-02-21T03:47:52;8.73;83.94
18581;DHT22;9420;50.876;7.012;2024-02-21T03:50:20;8.73;83.73
18581;DHT22;9420;50.876;7.012;2024-02-21T03:52:47;8.71;83.67
18581;DHT22;9420;50.876;7.012;2024-02-21T03:55:13;8.72;83.73
18581;DHT22;9420;50.876;7.012;2024-02-21T03:57:40;8.67;83.83
18581;DHT22;9420;50.876;7.012;2024-02-21T04:00:07;8.68;83.97
18581;DHT22;9420;50.876;7.012;2024-02-21T04:02:37;8.69;84.05
18581;DHT22;9420;50.876;7.012;2024-02-21T04:05:04;8.76;83.19
18581;DHT22;9420;50.876;7.012;2024-02-21T04:07:32;8.72;83.47
18581;DHT22;9420;50.876;7.012;2024-02-21T04:09:59;8.79;83.14
18581;DHT22;9420;50.876;7.012;2024-02-21T04:12:25;8.79;83.38
18581;DHT22;9420;50.876;7.012;2024-02-21T04:14:52;8.72;83.39
18581;DHT22;9420;50.876;7.012;2024-02-21T04:17:19;8.68;83.46
18581;DHT22;9420;50.876;7.012;2024-02-21T04:19:45;8.75;83.13
18581;DHT22;9420;50.876;7.012;2024-02-21T04:22:12;8.68;83.69
18581;DHT22;9420;50.876;7.012;2024-02-21T04:24:40;8.69;83.60
18581;DHT22;9420;50.876;7.012;2024-02-21T04:27:07;8.62;83.93
18581;DHT22;9420;50.876;7.012;2024-02-21T04:29:33;8.60;83.90
18581;DHT22;9420;50.876;7.012;2024-02-21T04:32:01;8.64;83.48
18581;DHT22;9420;50.876;7.012;2024-02-21T04:34:28;8.67;83.79
18581;DHT22;9420;50.876;7.012;2024-02-21T04:36:54;8.62;83.75
18581;DHT22;9420;50.876;7.012;2024-02-21T04:39:21;8.67;83.58
18581;DHT22;9420;50.876;7.012;2024-02-21T04:41:49;8.64;83.45
18581;DHT22;9420;50.876;7.012;2024-02-21T04:44:16;8.69;83.29
18581;DHT22;9420;50.876;7.012;2024-02-21T04:46:42;8.65;83.28
18581;DHT22;9420;50.876;7.012;2024-02-21T04:49:09;8.72;83.11
18581;DHT22;9420;50.876;7.012;2024-02-21T04:51:35;8.65;83.25
18581;DHT22;9420;50.876;7.012;2024-02-21T04:54:02;8.67;83.38
18581;DHT22;9420;50.876;7.012;2024-02-21T04:56:29;8.76;83.07
18581;DHT22;9420;50.876;7.012;2024-02-21T04:58:57;8.76;82.64
18581;DHT22;9420;50.876;7.012;2024-02-21T05:01:24;8.76;82.69
18581;DHT22;9420;50.876;7.012;2024-02-21T05:03:51;8.62;83.42
18581;DHT22;9420;50.876;7.012;2024-02-21T05:06:17;8.67;83.17
18581;DHT22;9420;50.876;7.012;2024-02-21T05:08:44;8.68;83.12
18581;DHT22;9420;50.876;7.012;2024-02-21T05:11:10;8.78;83.03
18581;DHT22;9420;50.876;7.012;2024-02-21T05:13:37;8.62;82.94
18581;DHT22;9420;50.876;7.012;2024-02-21T05:16:05;8.60;83.71
18581;DHT22;9420;50.876;7.012;2024-02-21T05:18:32;8.57;83.52
18581;DHT22;9420;50.876;7.012;2024-02-21T05:21:01;8.61;83.84
18581;DHT22;9420;50.876;7.012;2024-02-21T05:23:27;8.60;83.62
18581;DHT22;9420;50.876;7.012;2024-02-21T05:25:54;8.71;83.15
18581;DHT22;9420;50.876;7.012;2024-02-21T05:28:20;8.72;83.23
18581;DHT22;9420;50.876;7.012;2024-02-21T05:30:47;8.86;82.20
18581;DHT22;9420;50.876;7.012;2024-02-21T05:33:15;8.75;82.93
18581;DHT22;9420;50.876;7.012;2024-02-21T05:35:46;8.67;83.15
18581;DHT22;9420;50.876;7.012;2024-02-21T05:38:13;8.73;82.87
18581;DHT22;9420;50.876;7.012;2024-02-21T05:40:39;8.68;83.18
18581;DHT22;9420;50.876;7.012;2024-02-21T05:43:07;8.71;83.26
18581;DHT22;9420;50.876;7.012;2024-02-21T05:45:34;8.68;83.26
18581;DHT22;9420;50.876;7.012;2024-02-21T05:48:01;8.62;83.31
18581;DHT22;9420;50.876;7.012;2024-02-21T05:50:29;8.62;83.33
18581;DHT22;9420;50.876;7.012;2024-02-21T05:52:56;8.69;83.03
18581;DHT22;9420;50.876;7.012;2024-02-21T05:55:22;8.65;83.36
18581;DHT22;9420;50.876;7.012;2024-02-21T05:57:49;8.62;83.49
18581;DHT22;9420;50.876;7.012;2024-02-21T06:00:16;8.64;83.64
18581;DHT22;9420;50.876;7.012;2024-02-21T06:02:43;8.76;83.14
18581;DHT22;9420;50.876;7.012;2024-02-21T06:05:08;8.71;83.04
18581;DHT22;9420;50.876;7.012;2024-02-21T06:07:36;8.71;83.04
18581;DHT22;9420;50.876;7.012;2024-02-21T06:10:04;8.67;83.24
18581;DHT22;9420;50.876;7.012;2024-02-21T06:12:30;8.73;82.97
18581;DHT22;9420;50.876;7.012;2024-02-21T06:14:57;8.79;82.72
18581;DHT22;9420;50.876;7.012;2024-02-21T06:17:23;8.82;82.44
18581;DHT22;9420;50.876;7.012;2024-02-21T06:19:50;8.76;82.52
18581;DHT22;9420;50.876;7.012;2024-02-21T06:22:16;8.72;82.81
18581;DHT22;9420;50.876;7.012;2024-02-21T06:24:44;8.72;82.64
18581;DHT22;9420;50.876;7.012;2024-02-21T06:27:11;8.72;82.51
18581;DHT22;9420;50.876;7.012;2024-02-21T06:29:40;8.79;82.45
18581;DHT22;9420;50.876;7.012;2024-02-21T06:32:06;8.82;82.38
18581;DHT22;9420;50.876;7.012;2024-02-21T06:34:33;8.81;82.42
18581;DHT22;9420;50.876;7.012;2024-02-21T06:37:00;8.85;82.35
18581;DHT22;9420;50.876;7.012;2024-02-21T06:39:26;8.85;82.10
18581;DHT22;9420;50.876;7.012;2024-02-21T06:41:55;8.82;82.10
18581;DHT22;9420;50.876;7.012;2024-02-21T06:44:22;8.88;82.01
18581;DHT22;9420;50.876;7.012;2024-02-21T06:46:48;8.79;82.27
18581;DHT22;9420;50.876;7.012;2024-02-21T06:49:15;8.81;82.14
18581;DHT22;9420;50.876;7.012;2024-02-21T06:51:42;8.83;82.18
18581;DHT22;9420;50.876;7.012;2024-02-21T06:54:09;8.89;82.15
18581;DHT22;9420;50.876;7.012;2024-02-21T06:56:36;8.85;82.40
18581;DHT22;9420;50.876;7.012;2024-02-21T06:59:04;8.88;82.37
18581;DHT22;9420;50.876;7.012;2024-02-21T07:01:31;8.83;82.58
18581;DHT22;9420;50.876;7.012;2024-02-21T07:03:58;8.95;82.00
18581;DHT22;9420;50.876;7.012;2024-02-21T07:06:25;8.85;82.64
18581;DHT22;9420;50.876;7.012;2024-02-21T07:08:51;8.88;82.55
18581;DHT22;9420;50.876;7.012;2024-02-21T07:11:18;8.93;82.52
18581;DHT22;9420;50.876;7.012;2024-02-21T07:13:45;8.95;82.69
18581;DHT22;9420;50.876;7.012;2024-02-21T07:16:13;8.92;82.74
18581;DHT22;9420;50.876;7.012;2024-02-21T07:18:40;8.89;82.91
18581;DHT22;9420;50.876;7.012;2024-02-21T07:21:06;8.89;82.52
18581;DHT22;9420;50.876;7.012;2024-02-21T07:23:33;8.91;82.76
18581;DHT22;9420;50.876;7.012;2024-02-21T07:26:00;8.93;82.03
18581;DHT22;9420;50.876;7.012;2024-02-21T07:28:26;8.92;82.35
18581;DHT22;9420;50.876;7.012;2024-02-21T07:30:53;8.95;82.01
18581;DHT22;9420;50.876;7.012;2024-02-21T07:33:21;8.83;82.64
18581;DHT22;9420;50.876;7.012;2024-02-21T07:35:47;8.76;82.63
18581;DHT22;9420;50.876;7.012;2024-02-21T07:38:14;8.92;82.28
18581;DHT22;9420;50.876;7.012;2024-02-21T07:40:44;8.88;82.67
18581;DHT22;9420;50.876;7.012;2024-02-21T07:43:10;8.86;82.73
18581;DHT22;9420;50.876;7.012;2024-02-21T07:45:37;8.81;82.62
18581;DHT22;9420;50.876;7.012;2024-02-21T07:48:05;8.82;82.57
18581;DHT22;9420;50.876;7.012;2024-02-21T07:50:33;8.79;83.15
18581;DHT22;9420;50.876;7.012;2024-02-21T07:53:00;8.83;82.39
18581;DHT22;9420;50.876;7.012;2024-02-21T07:55:27;8.83;82.38
18581;DHT22;9420;50.876;7.012;2024-02-21T07:57:53;8.85;82.81
18581;DHT22;9420;50.876;7.012;2024-02-21T08:00:20;8.83;82.88
18581;DHT22;9420;50.876;7.012;2024-02-21T08:02:48;8.96;82.23
18581;DHT22;9420;50.876;7.012;2024-02-21T08:05:14;8.96;82.12
18581;DHT22;9420;50.876;7.012;2024-02-21T08:07:42;9.03;81.68
18581;DHT22;9420;50.876;7.012;2024-02-21T08:10:09;9.09;82.04
18581;DHT22;9420;50.876;7.012;2024-02-21T08:12:36;9.03;81.91
18581;DHT22;9420;50.876;7.012;2024-02-21T08:15:03;8.99;82.14
18581;DHT22;9420;50.876;7.012;2024-02-21T08:17:30;8.98;82.26
18581;DHT22;9420;50.876;7.012;2024-02-21T08:19:57;9.03;81.49
18581;DHT22;9420;50.876;7.012;2024-02-21T08:22:23;9.09;81.62
18581;DHT22;9420;50.876;7.012;2024-02-21T08:24:51;9.09;81.63
18581;DHT22;9420;50.876;7.012;2024-02-21T08:27:18;9.09;81.22
18581;DHT22;9420;50.876;7.012;2024-02-21T08:29:45;9.13;80.73
18581;DHT22;9420;50.876;7.012;2024-02-21T08:32:12;9.22;80.89
18581;DHT22;9420;50.876;7.012;2024-02-21T08:34:38;9.19;80.94
18581;DHT22;9420;50.876;7.012;2024-02-21T08:37:05;9.33;79.39
18581;DHT22;9420;50.876;7.012;2024-02-21T08:39:31;9.43;80.56
18581;DHT22;9420;50.876;7.012;2024-02-21T08:41:59;9.51;79.32
18581;DHT22;9420;50.876;7.012;2024-02-21T08:44:28;9.47;79.59
18581;DHT22;9420;50.876;7.012;2024-02-21T08:46:55;9.40;80.41
18581;DHT22;9420;50.876;7.012;2024-02-21T08:49:21;9.36;79.61
18581;DHT22;9420;50.876;7.012;2024-02-21T08:51:48;9.40;79.41
18581;DHT22;9420;50.876;7.012;2024-02-21T08:54:15;9.26;79.12
18581;DHT22;9420;50.876;7.012;2024-02-21T08:56:42;9.43;78.95
18581;DHT22;9420;50.876;7.012;2024-02-21T08:59:10;9.47;78.07
18581;DHT22;9420;50.876;7.012;2024-02-21T09:01:36;9.60;79.19
18581;DHT22;9420;50.876;7.012;2024-02-21T09:04:03;9.71;78.49
18581;DHT22;9420;50.876;7.012;2024-02-21T09:06:30;9.97;77.75
18581;DHT22;9420;50.876;7.012;2024-02-21T09:08:58;10.05;77.13
18581;DHT22;9420;50.876;7.012;2024-02-21T09:11:25;9.98;77.10
18581;DHT22;9420;50.876;7.012;2024-02-21T09:13:52;9.91;77.64
18581;DHT22;9420;50.876;7.012;2024-02-21T09:16:20;9.94;76.20
18581;DHT22;9420;50.876;7.012;2024-02-21T09:18:47;10.03;77.47
18581;DHT22;9420;50.876;7.012;2024-02-21T09:21:14;9.98;76.03
18581;DHT22;9420;50.876;7.012;2024-02-21T09:23:40;10.01;76.66
18581;DHT22;9420;50.876;7.012;2024-02-21T09:26:07;10.02;76.38
18581;DHT22;9420;50.876;7.012;2024-02-21T09:28:39;9.94;76.57
18581;DHT22;9420;50.876;7.012;2024-02-21T09:31:05;9.88;76.04
18581;DHT22;9420;50.876;7.012;2024-02-21T09:33:33;10.01;76.41
18581;DHT22;9420;50.876;7.012;2024-02-21T09:36:01;10.01;75.85
18581;DHT22;9420;50.876;7.012;2024-02-21T09:38:27;10.15;76.18
18581;DHT22;9420;50.876;7.012;2024-02-21T09:40:59;10.09;75.75
18581;DHT22;9420;50.876;7.012;2024-02-21T09:43:27;10.09;75.65
18581;DHT22;9420;50.876;7.012;2024-02-21T09:45:55;10.18;76.59
18581;DHT22;9420;50.876;7.012;2024-02-21T09:48:30;10.25;75.14
18581;DHT22;9420;50.876;7.012;2024-02-21T09:51:02;10.36;76.05
18581;DHT22;9420;50.876;7.012;2024-02-21T09:53:30;10.40;74.90
18581;DHT22;9420;50.876;7.012;2024-02-21T09:55:59;10.40;74.21
18581;DHT22;9420;50.876;7.012;2024-02-21T09:58:26;10.43;74.70
18581;DHT22;9420;50.876;7.012;2024-02-21T10:00:53;10.54;74.44
18581;DHT22;9420;50.876;7.012;2024-02-21T10:03:20;10.29;75.07
18581;DHT22;9420;50.876;7.012;2024-02-21T10:05:48;10.50;74.29
18581;DHT22;9420;50.876;7.012;2024-02-21T10:08:17;10.60;73.98
18581;DHT22;9420;50.876;7.012;2024-02-21T10:10:45;10.63;73.40
18581;DHT22;9420;50.876;7.012;2024-02-21T10:13:25;10.73;73.94
18581;DHT22;9420;50.876;7.012;2024-02-21T10:16:03;10.61;73.16
18581;DHT22;9420;50.876;7.012;2024-02-21T10:18:30;10.74;72.28
18581;DHT22;9420;50.876;7.012;2024-02-21T10:21:01;10.74;73.74
18581;DHT22;9420;50.876;7.012;2024-02-21T10:23:29;10.85;73.42
18581;DHT22;9420;50.876;7.012;2024-02-21T10:26:04;10.91;74.82
18581;DHT22;9420;50.876;7.012;2024-02-21T10:28:31;11.12;75.46
18581;DHT22;9420;50.876;7.012;2024-02-21T10:30:58;11.26;72.61
18581;DHT22;9420;50.876;7.012;2024-02-21T10:33:24;11.08;72.36
18581;DHT22;9420;50.876;7.012;2024-02-21T10:35:53;11.35;72.63
18581;DHT22;9420;50.876;7.012;2024-02-21T10:38:19;11.35;72.59
18581;DHT22;9420;50.876;7.012;2024-02-21T10:40:48;11.62;71.20
18581;DHT22;9420;50.876;7.012;2024-02-21T10:43:19;11.69;70.91
18581;DHT22;9420;50.876;7.012;2024-02-21T10:45:47;11.74;71.15
18581;DHT22;9420;50.876;7.012;2024-02-21T10:48:15;11.49;71.07
18581;DHT22;9420;50.876;7.012;2024-02-21T10:50:52;11.51;70.35
18581;DHT22;9420;50.876;7.012;2024-02-21T10:53:26;11.66;70.57
18581;DHT22;9420;50.876;7.012;2024-02-21T10:56:01;11.56;70.64
18581;DHT22;9420;50.876;7.012;2024-02-21T10:58:34;11.87;71.83
18581;DHT22;9420;50.876;7.012;2024-02-21T11:01:02;11.89;70.88
18581;DHT22;9420;50.876;7.012;2024-02-21T11:03:30;12.05;70.87
18581;DHT22;9420;50.876;7.012;2024-02-21T11:05:57;12.21;70.40
18581;DHT22;9420;50.876;7.012;2024-02-21T11:08:24;12.28;69.91
18581;DHT22;9420;50.876;7.012;2024-02-21T11:10:59;12.44;70.60
18581;DHT22;9420;50.876;7.012;2024-02-21T11:13:30;12.42;71.18
18581;DHT22;9420;50.876;7.012;2024-02-21T11:16:06;12.70;69.31
18581;DHT22;9420;50.876;7.012;2024-02-21T11:18:33;12.60;69.51
18581;DHT22;9420;50.876;7.012;2024-02-21T11:20:59;12.46;67.86
18581;DHT22;9420;50.876;7.012;2024-02-21T11:23:26;12.62;69.88
18581;DHT22;9420;50.876;7.012;2024-02-21T11:26:05;12.65;69.63
18581;DHT22;9420;50.876;7.012;2024-02-21T11:28:32;12.63;68.84
18581;DHT22;9420;50.876;7.012;2024-02-21T11:31:07;12.85;68.47
18581;DHT22;9420;50.876;7.012;2024-02-21T11:33:34;12.62;68.00
18581;DHT22;9420;50.876;7.012;2024-02-21T11:36:01;12.55;70.26
18581;DHT22;9420;50.876;7.012;2024-02-21T11:38:29;12.72;70.97
18581;DHT22;9420;50.876;7.012;2024-02-21T11:40:55;12.66;70.10
18581;DHT22;9420;50.876;7.012;2024-02-21T11:43:25;12.51;68.70
18581;DHT22;9420;50.876;7.012;2024-02-21T11:45:58;12.62;68.35
18581;DHT22;9420;50.876;7.012;2024-02-21T11:48:25;12.45;68.18
18581;DHT22;9420;50.876;7.012;2024-02-21T11:50:53;12.48;69.33
18581;DHT22;9420;50.876;7.012;2024-02-21T11:53:20;12.53;68.85
18581;DHT22;9420;50.876;7.012;2024-02-21T11:55:46;12.59;69.29
18581;DHT22;9420;50.876;7.012;2024-02-21T11:58:13;13.00;68.43
18581;DHT22;9420;50.876;7.012;2024-02-21T12:00:41;12.85;68.85
18581;DHT22;9420;50.876;7.012;2024-02-21T12:03:08;12.75;70.42
18581;DHT22;9420;50.876;7.012;2024-02-21T12:05:34;12.65;70.02
18581;DHT22;9420;50.876;7.012;2024-02-21T12:08:01;12.46;68.27
18581;DHT22;9420;50.876;7.012;2024-02-21T12:10:29;12.45;68.88
18581;DHT22;9420;50.876;7.012;2024-02-21T12:13:05;12.21;68.62
18581;DHT22;9420;50.876;7.012;2024-02-21T12:15:32;12.31;69.55
18581;DHT22;9420;50.876;7.012;2024-02-21T12:18:00;12.31;69.61
18581;DHT22;9420;50.876;7.012;2024-02-21T12:20:27;12.49;69.47
18581;DHT22;9420;50.876;7.012;2024-02-21T12:22:53;12.30;68.81
18581;DHT22;9420;50.876;7.012;2024-02-21T12:25:21;12.34;70.79
18581;DHT22;9420;50.876;7.012;2024-02-21T12:27:51;12.35;70.35
18581;DHT22;9420;50.876;7.012;2024-02-21T12:30:18;12.45;69.77
18581;DHT22;9420;50.876;7.012;2024-02-21T12:32:46;12.48;69.77
18581;DHT22;9420;50.876;7.012;2024-02-21T12:35:15;12.59;69.68
18581;DHT22;9420;50.876;7.012;2024-02-21T12:37:42;12.48;68.60
18581;DHT22;9420;50.876;7.012;2024-02-21T12:40:10;12.42;68.96
18581;DHT22;9420;50.876;7.012;2024-02-21T12:42:38;12.28;69.04
18581;DHT22;9420;50.876;7.012;2024-02-21T12:45:06;12.18;69.23
18581;DHT22;9420;50.876;7.012;2024-02-21T12:47:33;12.48;68.91
18581;DHT22;9420;50.876;7.012;2024-02-21T12:50:00;12.76;69.37
18581;DHT22;9420;50.876;7.012;2024-02-21T12:52:30;12.87;69.35
18581;DHT22;9420;50.876;7.012;2024-02-21T12:54:57;12.59;69.10
18581;DHT22;9420;50.876;7.012;2024-02-21T12:57:24;12.49;69.94
18581;DHT22;9420;50.876;7.012;2024-02-21T12:59:51;12.99;68.65
18581;DHT22;9420;50.876;7.012;2024-02-21T13:02:17;13.08;70.33
18581;DHT22;9420;50.876;7.012;2024-02-21T13:04:45;12.87;69.19
18581;DHT22;9420;50.876;7.012;2024-02-21T13:07:11;12.99;69.32
18581;DHT22;9420;50.876;7.012;2024-02-21T13:09:39;12.60;68.70
18581;DHT22;9420;50.876;7.012;2024-02-21T13:12:07;12.58;70.44
18581;DHT22;9420;50.876;7.012;2024-02-21T13:14:34;12.60;69.81
18581;DHT22;9420;50.876;7.012;2024-02-21T13:17:02;12.55;70.50
18581;DHT22;9420;50.876;7.012;2024-02-21T13:19:28;12.68;70.27
18581;DHT22;9420;50.876;7.012;2024-02-21T13:21:55;12.51;69.49
18581;DHT22;9420;50.876;7.012;2024-02-21T13:24:22;12.56;68.83
18581;DHT22;9420;50.876;7.012;2024-02-21T13:26:50;12.89;68.58
18581;DHT22;9420;50.876;7.012;2024-02-21T13:29:16;12.70;70.37
18581;DHT22;9420;50.876;7.012;2024-02-21T13:31:44;12.78;69.84
18581;DHT22;9420;50.876;7.012;2024-02-21T13:34:10;12.82;68.96
18581;DHT22;9420;50.876;7.012;2024-02-21T13:36:37;12.95;68.21
18581;DHT22;9420;50.876;7.012;2024-02-21T13:39:04;12.80;66.78
18581;DHT22;9420;50.876;7.012;2024-02-21T13:41:32;12.42;67.15
18581;DHT22;9420;50.876;7.012;2024-02-21T13:44:01;12.31;67.93
18581;DHT22;9420;50.876;7.012;2024-02-21T13:46:29;12.00;68.41
18581;DHT22;9420;50.876;7.012;2024-02-21T13:49:03;11.87;68.41
18581;DHT22;9420;50.876;7.012;2024-02-21T13:51:32;11.91;68.53
18581;DHT22;9420;50.876;7.012;2024-02-21T13:53:58;11.83;69.26
18581;DHT22;9420;50.876;7.012;2024-02-21T13:56:25;11.89;69.69
18581;DHT22;9420;50.876;7.012;2024-02-21T13:58:52;11.84;68.73
18581;DHT22;9420;50.876;7.012;2024-02-21T14:01:20;11.83;70.19
18581;DHT22;9420;50.876;7.012;2024-02-21T14:03:46;11.81;68.30
18581;DHT22;9420;50.876;7.012;2024-02-21T14:06:13;11.86;69.12
18581;DHT22;9420;50.876;7.012;2024-02-21T14:08:40;11.84;69.14
18581;DHT22;9420;50.876;7.012;2024-02-21T14:11:07;11.94;70.57
18581;DHT22;9420;50.876;7.012;2024-02-21T14:13:33;12.04;68.31
18581;DHT22;9420;50.876;7.012;2024-02-21T14:16:00;12.22;68.08
18581;DHT22;9420;50.876;7.012;2024-02-21T14:18:28;12.07;68.91
18581;DHT22;9420;50.876;7.012;2024-02-21T14:20:55;12.07;67.93
18581;DHT22;9420;50.876;7.012;2024-02-21T14:23:21;11.97;69.37
18581;DHT22;9420;50.876;7.012;2024-02-21T14:25:48;12.01;68.93
18581;DHT22;9420;50.876;7.012;2024-02-21T14:28:15;12.05;68.76
18581;DHT22;9420;50.876;7.012;2024-02-21T14:30:43;12.01;69.31
18581;DHT22;9420;50.876;7.012;2024-02-21T14:33:10;11.95;68.84
18581;DHT22;9420;50.876;7.012;2024-02-21T14:35:37;12.05;71.05
18581;DHT22;9420;50.876;7.012;2024-02-21T14:38:04;12.02;71.18
18581;DHT22;9420;50.876;7.012;2024-02-21T14:40:31;11.95;69.49
18581;DHT22;9420;50.876;7.012;2024-02-21T14:42:59;12.01;69.56
18581;DHT22;9420;50.876;7.012;2024-02-21T14:45:26;12.11;69.15
18581;DHT22;9420;50.876;7.012;2024-02-21T14:47:52;11.98;69.16
18581;DHT22;9420;50.876;7.012;2024-02-21T14:50:20;11.97;71.13
18581;DHT22;9420;50.876;7.012;2024-02-21T14:52:50;12.00;71.05
18581;DHT22;9420;50.876;7.012;2024-02-21T14:55:17;11.91;72.63
18581;DHT22;9420;50.876;7.012;2024-02-21T14:57:44;11.83;73.97
18581;DHT22;9420;50.876;7.012;2024-02-21T15:00:11;11.69;72.52
18581;DHT22;9420;50.876;7.012;2024-02-21T15:02:38;11.59;74.60
18581;DHT22;9420;50.876;7.012;2024-02-21T15:05:05;11.53;74.79
18581;DHT22;9420;50.876;7.012;2024-02-21T15:07:32;11.52;74.90
18581;DHT22;9420;50.876;7.012;2024-02-21T15:10:00;11.61;72.53
18581;DHT22;9420;50.876;7.012;2024-02-21T15:12:28;11.49;74.13
18581;DHT22;9420;50.876;7.012;2024-02-21T15:14:54;11.55;73.28
18581;DHT22;9420;50.876;7.012;2024-02-21T15:17:21;11.51;72.81
18581;DHT22;9420;50.876;7.012;2024-02-21T15:19:47;11.52;71.29
18581;DHT22;9420;50.876;7.012;2024-02-21T15:22:15;11.76;65.81
18581;DHT22;9420;50.876;7.012;2024-02-21T15:24:43;11.86;64.63
18581;DHT22;9420;50.876;7.012;2024-02-21T15:27:12;11.81;64.00
18581;DHT22;9420;50.876;7.012;2024-02-21T15:29:39;11.87;62.14
18581;DHT22;9420;50.876;7.012;2024-02-21T15:32:06;11.77;62.48
18581;DHT22;9420;50.876;7.012;2024-02-21T15:34:32;11.81;62.12
18581;DHT22;9420;50.876;7.012;2024-02-21T15:36:59;11.80;63.00
18581;DHT22;9420;50.876;7.012;2024-02-21T15:39:26;11.73;62.08
18581;DHT22;9420;50.876;7.012;2024-02-21T15:41:55;11.69;63.36
18581;DHT22;9420;50.876;7.012;2024-02-21T15:44:25;11.66;63.96
18581;DHT22;9420;50.876;7.012;2024-02-21T15:46:52;11.63;65.30
18581;DHT22;9420;50.876;7.012;2024-02-21T15:49:19;11.40;69.21
18581;DHT22;9420;50.876;7.012;2024-02-21T15:51:46;11.35;68.32
18581;DHT22;9420;50.876;7.012;2024-02-21T15:54:24;11.43;66.57
18581;DHT22;9420;50.876;7.012;2024-02-21T15:56:52;11.42;66.38